sensor_id;sensor_type;location;lat;lon;timestamp;pressure;altitude;pressure_sealevel;temperature;humidity
12360;BME280;6244;51.460;7.090;2023-04-10T00:02:46;101264.69;;;8.78;55.15
12360;BME280;6244;51.460;7.090;2023-04-10T00:07:42;101260.00;;;8.88;54.75
12360;BME280;6244;51.460;7.090;2023-04-10T00:12:39;101257.75;;;9.02;55.30
12360;BME280;6244;51.460;7.090;2023-04-10T00:17:37;101249.41;;;8.91;55.83
12360;BME280;6244;51.460;7.090;2023-04-10T00:22:34;101243.03;;;9.00;54.87
12360;BME280;6244;51.460;7.090;2023-04-10T00:27:30;101244.97;;;8.95;54.54
12360;BME280;6244;51.460;7.090;2023-04-10T00:32:27;101231.03;;;8.93;55.28
12360;BME280;6244;51.460;7.090;2023-04-10T00:37:24;101224.75;;;8.73;54.53
12360;BME280;6244;51.460;7.090;2023-04-10T00:42:21;101217.34;;;8.86;55.29
12360;BME280;6244;51.460;7.090;2023-04-10T00:47:18;101227.44;;;8.72;56.33
12360;BME280;6244;51.460;7.090;2023-04-10T00:52:14;101215.19;;;8.72;55.58
12360;BME280;6244;51.460;7.090;2023-04-10T00:57:12;101215.13;;;8.74;55.82
12360;BME280;6244;51.460;7.090;2023-04-10T01:02:09;101212.16;;;8.85;55.44
12360;BME280;6244;51.460;7.090;2023-04-10T01:07:10;101212.69;;;8.69;56.88
12360;BME280;6244;51.460;7.090;2023-04-10T01:12:24;101211.72;;;8.72;56.56
12360;BME280;6244;51.460;7.090;2023-04-10T01:17:29;101210.50;;;8.57;57.89
12360;BME280;6244;51.460;7.090;2023-04-10T01:22:30;101210.38;;;8.60;58.24
12360;BME280;6244;51.460;7.090;2023-04-10T01:27:39;101205.16;;;8.60;58.64
12360;BME280;6244;51.460;7.090;2023-04-10T01:32:41;101195.72;;;8.54;56.68
12360;BME280;6244;51.460;7.090;2023-04-10T01:37:41;101182.50;;;8.59;56.82
12360;BME280;6244;51.460;7.090;2023-04-10T01:42:42;101164.94;;;8.63;56.47
12360;BME280;6244;51.460;7.090;2023-04-10T01:47:39;101165.47;;;8.47;57.44
12360;BME280;6244;51.460;7.090;2023-04-10T01:52:38;101160.56;;;8.38;56.93
12360;BME280;6244;51.460;7.090;2023-04-10T01:57:35;101160.38;;;8.44;56.37
12360;BME280;6244;51.460;7.090;2023-04-10T02:02:32;101159.88;;;8.32;56.51
12360;BME280;6244;51.460;7.090;2023-04-10T02:07:35;101158.69;;;8.42;56.71
12360;BME280;6244;51.460;7.090;2023-04-10T02:12:40;101152.84;;;8.60;56.60
12360;BME280;6244;51.460;7.090;2023-04-10T02:17:41;101161.66;;;8.58;56.50
12360;BME280;6244;51.460;7.090;2023-04-10T02:22:39;101154.84;;;8.52;57.09
12360;BME280;6244;51.460;7.090;2023-04-10T02:27:40;101148.72;;;8.53;57.08
12360;BME280;6244;51.460;7.090;2023-04-10T02:32:37;101146.56;;;8.39;57.23
12360;BME280;6244;51.460;7.090;2023-04-10T02:37:33;101142.09;;;8.43;56.64
12360;BME280;6244;51.460;7.090;2023-04-10T02:42:30;101140.75;;;8.31;57.44
12360;BME280;6244;51.460;7.090;2023-04-10T02:47:28;101137.66;;;8.18;58.15
12360;BME280;6244;51.460;7.090;2023-04-10T02:52:24;101146.09;;;8.27;58.94
12360;BME280;6244;51.460;7.090;2023-04-10T02:57:21;101147.63;;;8.07;59.46
12360;BME280;6244;51.460;7.090;2023-04-10T03:02:17;101144.19;;;8.05;59.16
12360;BME280;6244;51.460;7.090;2023-04-10T03:07:15;101135.41;;;8.08;59.50
12360;BME280;6244;51.460;7.090;2023-04-10T03:12:12;101131.13;;;8.05;59.88
12360;BME280;6244;51.460;7.090;2023-04-10T03:17:08;101124.06;;;8.09;59.81
12360;BME280;6244;51.460;7.090;2023-04-10T03:22:06;101123.16;;;8.10;59.02
12360;BME280;6244;51.460;7.090;2023-04-10T03:27:04;101103.88;;;8.12;59.43
12360;BME280;6244;51.460;7.090;2023-04-10T03:32:00;101103.19;;;8.07;59.37
12360;BME280;6244;51.460;7.090;2023-04-10T03:36:57;101096.47;;;8.00;59.28
12360;BME280;6244;51.460;7.090;2023-04-10T03:41:53;101092.25;;;7.96;59.76
12360;BME280;6244;51.460;7.090;2023-04-10T03:46:51;101102.38;;;8.05;59.96
12360;BME280;6244;51.460;7.090;2023-04-10T03:51:48;101089.41;;;8.02;59.30
12360;BME280;6244;51.460;7.090;2023-04-10T03:56:44;101086.22;;;7.94;59.45
12360;BME280;6244;51.460;7.090;2023-04-10T04:01:41;101086.56;;;7.83;60.02
12360;BME280;6244;51.460;7.090;2023-04-10T04:06:39;101084.53;;;7.65;59.77
12360;BME280;6244;51.460;7.090;2023-04-10T04:11:35;101080.06;;;7.69;60.50
12360;BME280;6244;51.460;7.090;2023-04-10T04:16:32;101077.56;;;7.65;60.10
12360;BME280;6244;51.460;7.090;2023-04-10T04:21:29;101077.81;;;7.58;59.20
12360;BME280;6244;51.460;7.090;2023-04-10T04:26:27;101073.53;;;7.55;58.88
12360;BME280;6244;51.460;7.090;2023-04-10T04:31:23;101062.06;;;7.61;58.23
12360;BME280;6244;51.460;7.090;2023-04-10T04:36:26;101059.66;;;7.53;58.96
12360;BME280;6244;51.460;7.090;2023-04-10T04:41:23;101063.44;;;7.45;59.21
12360;BME280;6244;51.460;7.090;2023-04-10T04:46:21;101067.94;;;7.40;59.88
12360;BME280;6244;51.460;7.090;2023-04-10T04:51:17;101067.41;;;7.56;59.20
12360;BME280;6244;51.460;7.090;2023-04-10T04:56:14;101056.38;;;7.48;59.39
12360;BME280;6244;51.460;7.090;2023-04-10T05:01:10;101057.69;;;7.61;58.73
12360;BME280;6244;51.460;7.090;2023-04-10T05:06:08;101058.41;;;7.65;58.68
12360;BME280;6244;51.460;7.090;2023-04-10T05:11:05;101062.09;;;7.59;59.61
12360;BME280;6244;51.460;7.090;2023-04-10T05:16:02;101057.41;;;7.43;60.08
12360;BME280;6244;51.460;7.090;2023-04-10T05:20:58;101056.38;;;7.48;60.47
12360;BME280;6244;51.460;7.090;2023-04-10T05:25:56;101051.44;;;7.39;59.97
12360;BME280;6244;51.460;7.090;2023-04-10T05:30:53;101057.72;;;7.60;58.44
12360;BME280;6244;51.460;7.090;2023-04-10T05:35:51;101072.91;;;7.75;57.43
12360;BME280;6244;51.460;7.090;2023-04-10T05:40:48;101064.22;;;7.75;57.89
12360;BME280;6244;51.460;7.090;2023-04-10T05:45:46;101059.53;;;7.84;55.51
12360;BME280;6244;51.460;7.090;2023-04-10T05:50:42;101050.94;;;8.07;53.66
12360;BME280;6244;51.460;7.090;2023-04-10T05:55:39;101055.16;;;8.36;51.87
12360;BME280;6244;51.460;7.090;2023-04-10T06:00:35;101061.84;;;8.45;52.96
12360;BME280;6244;51.460;7.090;2023-04-10T06:05:33;101048.88;;;8.65;53.32
12360;BME280;6244;51.460;7.090;2023-04-10T06:10:30;101058.94;;;8.76;50.86
12360;BME280;6244;51.460;7.090;2023-04-10T06:15:27;101049.59;;;8.92;51.18
12360;BME280;6244;51.460;7.090;2023-04-10T06:20:24;101045.00;;;8.99;50.95
12360;BME280;6244;51.460;7.090;2023-04-10T06:25:22;101033.63;;;9.22;49.60
12360;BME280;6244;51.460;7.090;2023-04-10T06:30:18;101021.41;;;9.22;49.70
12360;BME280;6244;51.460;7.090;2023-04-10T06:35:15;101017.97;;;9.42;48.13
12360;BME280;6244;51.460;7.090;2023-04-10T06:40:13;101020.47;;;9.45;48.06
12360;BME280;6244;51.460;7.090;2023-04-10T06:45:11;101019.72;;;9.63;48.77
12360;BME280;6244;51.460;7.090;2023-04-10T06:50:08;101029.91;;;9.91;46.81
12360;BME280;6244;51.460;7.090;2023-04-10T06:55:05;101026.66;;;10.07;47.04
12360;BME280;6244;51.460;7.090;2023-04-10T07:00:02;101022.84;;;10.34;45.04
12360;BME280;6244;51.460;7.090;2023-04-10T07:05:00;101025.53;;;10.72;44.46
12360;BME280;6244;51.460;7.090;2023-04-10T07:09:57;101011.09;;;10.99;43.64
12360;BME280;6244;51.460;7.090;2023-04-10T07:14:53;100997.25;;;11.14;43.28
12360;BME280;6244;51.460;7.090;2023-04-10T07:19:50;100995.09;;;11.23;41.65
12360;BME280;6244;51.460;7.090;2023-04-10T07:24:48;100977.56;;;11.23;43.29
12360;BME280;6244;51.460;7.090;2023-04-10T07:29:44;100977.34;;;11.28;43.70
12360;BME280;6244;51.460;7.090;2023-04-10T07:34:41;100979.69;;;11.34;42.41
12360;BME280;6244;51.460;7.090;2023-04-10T07:39:38;100975.31;;;11.69;41.92
12360;BME280;6244;51.460;7.090;2023-04-10T07:44:37;100963.69;;;11.90;41.00
12360;BME280;6244;51.460;7.090;2023-04-10T07:49:33;100958.81;;;12.00;41.91
12360;BME280;6244;51.460;7.090;2023-04-10T07:54:30;100956.81;;;12.05;41.56
12360;BME280;6244;51.460;7.090;2023-04-10T07:59:27;100945.34;;;12.39;40.35
12360;BME280;6244;51.460;7.090;2023-04-10T08:04:25;100937.72;;;12.50;39.83
12360;BME280;6244;51.460;7.090;2023-04-10T08:09:22;100929.09;;;13.26;39.91
12360;BME280;6244;51.460;7.090;2023-04-10T08:14:18;100923.25;;;14.23;35.67
12360;BME280;6244;51.460;7.090;2023-04-10T08:19:15;100911.81;;;15.19;34.21
12360;BME280;6244;51.460;7.090;2023-04-10T08:24:13;100906.44;;;15.34;33.51
12360;BME280;6244;51.460;7.090;2023-04-10T08:29:09;100896.16;;;15.94;31.80
12360;BME280;6244;51.460;7.090;2023-04-10T08:34:06;100894.69;;;15.90;30.91
12360;BME280;6244;51.460;7.090;2023-04-10T08:39:02;100894.53;;;15.41;31.23
12360;BME280;6244;51.460;7.090;2023-04-10T08:44:00;100878.22;;;15.47;32.05
12360;BME280;6244;51.460;7.090;2023-04-10T08:49:00;100870.63;;;15.42;31.05
12360;BME280;6244;51.460;7.090;2023-04-10T08:54:04;100871.56;;;14.89;31.23
12360;BME280;6244;51.460;7.090;2023-04-10T08:59:03;100852.25;;;14.47;32.31
12360;BME280;6244;51.460;7.090;2023-04-10T09:04:00;100854.31;;;14.42;32.20
12360;BME280;6244;51.460;7.090;2023-04-10T09:08:57;100849.13;;;14.40;32.48
12360;BME280;6244;51.460;7.090;2023-04-10T09:13:54;100836.75;;;14.55;31.58
12360;BME280;6244;51.460;7.090;2023-04-10T09:18:52;100840.63;;;14.64;32.79
12360;BME280;6244;51.460;7.090;2023-04-10T09:23:59;100827.19;;;15.07;31.41
12360;BME280;6244;51.460;7.090;2023-04-10T09:29:00;100835.44;;;15.02;31.47
12360;BME280;6244;51.460;7.090;2023-04-10T09:34:09;100847.50;;;15.06;31.82
12360;BME280;6244;51.460;7.090;2023-04-10T09:39:07;100861.81;;;14.62;32.03
12360;BME280;6244;51.460;7.090;2023-04-10T09:44:08;100848.78;;;15.13;31.84
12360;BME280;6244;51.460;7.090;2023-04-10T09:49:06;100834.56;;;15.54;30.30
12360;BME280;6244;51.460;7.090;2023-04-10T09:54:03;100816.22;;;16.02;31.09
12360;BME280;6244;51.460;7.090;2023-04-10T09:59:01;100807.19;;;16.17;30.23
12360;BME280;6244;51.460;7.090;2023-04-10T10:04:01;100818.34;;;15.97;29.73
12360;BME280;6244;51.460;7.090;2023-04-10T10:09:02;100805.56;;;15.52;31.64
12360;BME280;6244;51.460;7.090;2023-04-10T10:14:01;100797.53;;;15.67;31.37
12360;BME280;6244;51.460;7.090;2023-04-10T10:19:04;100798.44;;;16.04;30.39
12360;BME280;6244;51.460;7.090;2023-04-10T10:24:06;100788.47;;;16.07;30.10
12360;BME280;6244;51.460;7.090;2023-04-10T10:29:05;100771.16;;;15.91;30.65
12360;BME280;6244;51.460;7.090;2023-04-10T10:34:05;100770.69;;;16.33;29.88
12360;BME280;6244;51.460;7.090;2023-04-10T10:39:18;100764.38;;;16.71;28.21
12360;BME280;6244;51.460;7.090;2023-04-10T10:44:22;100746.78;;;16.70;29.08
12360;BME280;6244;51.460;7.090;2023-04-10T10:49:21;100736.50;;;16.89;27.64
12360;BME280;6244;51.460;7.090;2023-04-10T10:54:33;100740.34;;;16.61;27.14
12360;BME280;6244;51.460;7.090;2023-04-10T10:59:54;100696.47;;;16.22;27.80
12360;BME280;6244;51.460;7.090;2023-04-10T11:04:51;100695.19;;;16.28;27.19
12360;BME280;6244;51.460;7.090;2023-04-10T11:09:51;100677.22;;;16.20;27.29
12360;BME280;6244;51.460;7.090;2023-04-10T11:15:06;100661.88;;;16.36;27.56
12360;BME280;6244;51.460;7.090;2023-04-10T11:20:04;100654.97;;;16.58;27.22
12360;BME280;6244;51.460;7.090;2023-04-10T11:25:04;100640.38;;;16.87;25.78
12360;BME280;6244;51.460;7.090;2023-04-10T11:30:24;100639.28;;;16.43;26.48
12360;BME280;6244;51.460;7.090;2023-04-10T11:35:20;100634.34;;;16.39;26.09
12360;BME280;6244;51.460;7.090;2023-04-10T11:40:18;100629.69;;;16.54;26.30
12360;BME280;6244;51.460;7.090;2023-04-10T11:45:23;100625.34;;;16.53;26.08
12360;BME280;6244;51.460;7.090;2023-04-10T11:50:20;100608.13;;;16.58;27.02
12360;BME280;6244;51.460;7.090;2023-04-10T11:55:17;100590.59;;;16.91;27.44
12360;BME280;6244;51.460;7.090;2023-04-10T12:00:22;100589.84;;;17.11;25.83
12360;BME280;6244;51.460;7.090;2023-04-10T12:05:19;100577.78;;;17.41;25.58
12360;BME280;6244;51.460;7.090;2023-04-10T12:10:16;100564.91;;;17.25;25.42
12360;BME280;6244;51.460;7.090;2023-04-10T12:15:27;100565.41;;;17.08;26.83
12360;BME280;6244;51.460;7.090;2023-04-10T12:20:24;100556.19;;;17.34;25.11
12360;BME280;6244;51.460;7.090;2023-04-10T12:25:23;100555.16;;;17.14;24.80
12360;BME280;6244;51.460;7.090;2023-04-10T12:30:19;100537.09;;;16.86;25.79
12360;BME280;6244;51.460;7.090;2023-04-10T12:35:18;100535.78;;;16.80;25.83
12360;BME280;6244;51.460;7.090;2023-04-10T12:40:14;100538.06;;;16.96;25.84
12360;BME280;6244;51.460;7.090;2023-04-10T12:45:14;100526.63;;;16.95;25.46
12360;BME280;6244;51.460;7.090;2023-04-10T12:50:12;100526.03;;;16.81;26.18
12360;BME280;6244;51.460;7.090;2023-04-10T12:55:12;100520.38;;;16.74;27.12
12360;BME280;6244;51.460;7.090;2023-04-10T13:00:11;100513.38;;;16.51;26.30
12360;BME280;6244;51.460;7.090;2023-04-10T13:05:09;100496.19;;;16.67;27.18
12360;BME280;6244;51.460;7.090;2023-04-10T13:10:06;100478.22;;;16.82;26.65
12360;BME280;6244;51.460;7.090;2023-04-10T13:15:05;100488.34;;;16.88;27.06
12360;BME280;6244;51.460;7.090;2023-04-10T13:20:02;100477.63;;;16.79;27.11
12360;BME280;6244;51.460;7.090;2023-04-10T13:24:59;100461.97;;;16.76;27.24
12360;BME280;6244;51.460;7.090;2023-04-10T13:29:57;100462.06;;;16.74;27.07
12360;BME280;6244;51.460;7.090;2023-04-10T13:34:55;100444.34;;;16.86;27.58
12360;BME280;6244;51.460;7.090;2023-04-10T13:39:52;100435.09;;;16.80;27.15
12360;BME280;6244;51.460;7.090;2023-04-10T13:44:49;100420.53;;;16.63;27.14
12360;BME280;6244;51.460;7.090;2023-04-10T13:49:45;100408.38;;;16.50;28.13
12360;BME280;6244;51.460;7.090;2023-04-10T13:54:43;100392.97;;;16.43;28.22
12360;BME280;6244;51.460;7.090;2023-04-10T13:59:39;100384.06;;;16.44;28.98
12360;BME280;6244;51.460;7.090;2023-04-10T14:04:36;100370.53;;;16.59;28.97
12360;BME280;6244;51.460;7.090;2023-04-10T14:09:32;100355.97;;;16.76;29.39
12360;BME280;6244;51.460;7.090;2023-04-10T14:14:30;100358.16;;;16.70;29.93
12360;BME280;6244;51.460;7.090;2023-04-10T14:19:27;100337.78;;;16.60;29.97
12360;BME280;6244;51.460;7.090;2023-04-10T14:24:23;100334.81;;;16.53;29.83
12360;BME280;6244;51.460;7.090;2023-04-10T14:29:20;100321.72;;;16.40;30.32
12360;BME280;6244;51.460;7.090;2023-04-10T14:34:18;100325.94;;;16.32;29.24
12360;BME280;6244;51.460;7.090;2023-04-10T14:39:14;100297.91;;;16.18;29.21
12360;BME280;6244;51.460;7.090;2023-04-10T14:44:11;100299.34;;;16.33;29.51
12360;BME280;6244;51.460;7.090;2023-04-10T14:49:07;100276.97;;;16.37;29.35
12360;BME280;6244;51.460;7.090;2023-04-10T14:54:06;100272.06;;;16.10;30.67
12360;BME280;6244;51.460;7.090;2023-04-10T14:59:03;100277.00;;;16.15;30.16
12360;BME280;6244;51.460;7.090;2023-04-10T15:04:01;100276.75;;;16.18;30.26
12360;BME280;6244;51.460;7.090;2023-04-10T15:08:57;100266.31;;;16.05;30.56
12360;BME280;6244;51.460;7.090;2023-04-10T15:13:57;100269.78;;;16.17;30.70
12360;BME280;6244;51.460;7.090;2023-04-10T15:18:54;100250.81;;;16.01;31.40
12360;BME280;6244;51.460;7.090;2023-04-10T15:23:50;100251.00;;;16.09;31.61
12360;BME280;6244;51.460;7.090;2023-04-10T15:28:47;100229.84;;;16.09;31.31
12360;BME280;6244;51.460;7.090;2023-04-10T15:33:45;100225.22;;;16.22;31.67
12360;BME280;6244;51.460;7.090;2023-04-10T15:38:41;100222.56;;;16.22;31.91
12360;BME280;6244;51.460;7.090;2023-04-10T15:43:38;100222.25;;;16.48;31.49
12360;BME280;6244;51.460;7.090;2023-04-10T15:48:36;100199.50;;;16.45;31.84
12360;BME280;6244;51.460;7.090;2023-04-10T15:53:34;100187.25;;;16.44;30.79
12360;BME280;6244;51.460;7.090;2023-04-10T15:58:31;100186.13;;;16.47;30.50
12360;BME280;6244;51.460;7.090;2023-04-10T16:03:27;100183.31;;;16.38;30.99
12360;BME280;6244;51.460;7.090;2023-04-10T16:08:24;100171.66;;;16.30;31.28
12360;BME280;6244;51.460;7.090;2023-04-10T16:13:22;100180.84;;;16.26;31.09
12360;BME280;6244;51.460;7.090;2023-04-10T16:18:19;100174.47;;;16.17;32.10
12360;BME280;6244;51.460;7.090;2023-04-10T16:23:15;100184.50;;;16.02;32.44
12360;BME280;6244;51.460;7.090;2023-04-10T16:28:12;100175.25;;;15.97;33.19
12360;BME280;6244;51.460;7.090;2023-04-10T16:33:10;100176.00;;;15.88;33.49
12360;BME280;6244;51.460;7.090;2023-04-10T16:38:06;100175.66;;;15.81;34.27
12360;BME280;6244;51.460;7.090;2023-04-10T16:43:03;100170.84;;;15.75;35.44
12360;BME280;6244;51.460;7.090;2023-04-10T16:47:59;100182.41;;;15.51;37.26
12360;BME280;6244;51.460;7.090;2023-04-10T16:52:57;100183.38;;;15.28;39.68
12360;BME280;6244;51.460;7.090;2023-04-10T16:57:54;100177.56;;;14.89;43.31
12360;BME280;6244;51.460;7.090;2023-04-10T17:02:50;100154.28;;;14.24;48.91
12360;BME280;6244;51.460;7.090;2023-04-10T17:07:47;100097.13;;;13.53;52.98
12360;BME280;6244;51.460;7.090;2023-04-10T17:12:45;100073.91;;;13.21;55.06
12360;BME280;6244;51.460;7.090;2023-04-10T17:17:41;100067.19;;;12.92;55.21
12360;BME280;6244;51.460;7.090;2023-04-10T17:22:38;100051.97;;;13.08;53.89
12360;BME280;6244;51.460;7.090;2023-04-10T17:27:34;100061.88;;;13.17;53.70
12360;BME280;6244;51.460;7.090;2023-04-10T17:32:32;100089.28;;;13.28;54.68
12360;BME280;6244;51.460;7.090;2023-04-10T17:37:29;100058.69;;;13.12;54.20
12360;BME280;6244;51.460;7.090;2023-04-10T17:42:25;100051.03;;;13.09;55.27
12360;BME280;6244;51.460;7.090;2023-04-10T17:47:22;100042.69;;;13.15;54.00
12360;BME280;6244;51.460;7.090;2023-04-10T17:52:19;100024.91;;;13.19;53.86
12360;BME280;6244;51.460;7.090;2023-04-10T17:57:16;100045.97;;;13.19;54.21
12360;BME280;6244;51.460;7.090;2023-04-10T18:02:12;100059.88;;;13.08;55.93
12360;BME280;6244;51.460;7.090;2023-04-10T18:07:09;100068.34;;;12.62;59.15
12360;BME280;6244;51.460;7.090;2023-04-10T18:12:07;100086.00;;;12.22;60.76
12360;BME280;6244;51.460;7.090;2023-04-10T18:17:04;100098.50;;;12.06;61.88
12360;BME280;6244;51.460;7.090;2023-04-10T18:22:01;100106.00;;;11.85;64.20
12360;BME280;6244;51.460;7.090;2023-04-10T18:26:57;100130.06;;;11.79;62.87
12360;BME280;6244;51.460;7.090;2023-04-10T18:31:56;100120.78;;;11.59;65.80
12360;BME280;6244;51.460;7.090;2023-04-10T18:36:52;100111.00;;;11.34;68.19
12360;BME280;6244;51.460;7.090;2023-04-10T18:41:49;100087.28;;;11.22;70.09
12360;BME280;6244;51.460;7.090;2023-04-10T18:46:46;100088.59;;;11.00;72.30
12360;BME280;6244;51.460;7.090;2023-04-10T18:51:44;100109.06;;;10.81;73.69
12360;BME280;6244;51.460;7.090;2023-04-10T18:56:40;100122.81;;;10.70;77.11
12360;BME280;6244;51.460;7.090;2023-04-10T19:01:37;100109.97;;;10.66;77.56
12360;BME280;6244;51.460;7.090;2023-04-10T19:06:34;100105.19;;;10.58;77.59
12360;BME280;6244;51.460;7.090;2023-04-10T19:11:35;100108.22;;;10.36;79.94
12360;BME280;6244;51.460;7.090;2023-04-10T19:16:32;100100.91;;;10.27;80.58
12360;BME280;6244;51.460;7.090;2023-04-10T19:21:28;100101.03;;;10.10;83.13
12360;BME280;6244;51.460;7.090;2023-04-10T19:26:25;100104.88;;;10.18;82.01
12360;BME280;6244;51.460;7.090;2023-04-10T19:31:23;100123.09;;;10.21;83.74
12360;BME280;6244;51.460;7.090;2023-04-10T19:36:21;100182.19;;;10.27;82.51
12360;BME280;6244;51.460;7.090;2023-04-10T19:41:18;100131.41;;;9.98;83.79
12360;BME280;6244;51.460;7.090;2023-04-10T19:46:16;100129.13;;;9.76;85.48
12360;BME280;6244;51.460;7.090;2023-04-10T19:51:14;100139.78;;;9.73;86.71
12360;BME280;6244;51.460;7.090;2023-04-10T19:56:10;100158.31;;;9.70;86.69
12360;BME280;6244;51.460;7.090;2023-04-10T20:01:07;100147.31;;;9.63;87.57
12360;BME280;6244;51.460;7.090;2023-04-10T20:06:05;100150.38;;;9.56;88.56
12360;BME280;6244;51.460;7.090;2023-04-10T20:11:04;100145.72;;;9.45;89.57
12360;BME280;6244;51.460;7.090;2023-04-10T20:16:01;100132.94;;;9.39;89.69
12360;BME280;6244;51.460;7.090;2023-04-10T20:20:57;100127.97;;;9.34;90.37
12360;BME280;6244;51.460;7.090;2023-04-10T20:25:54;100107.94;;;9.33;90.26
12360;BME280;6244;51.460;7.090;2023-04-10T20:30:52;100120.44;;;9.28;90.81
12360;BME280;6244;51.460;7.090;2023-04-10T20:35:48;100108.53;;;9.23;90.83
12360;BME280;6244;51.460;7.090;2023-04-10T20:40:45;100102.75;;;9.16;90.82
12360;BME280;6244;51.460;7.090;2023-04-10T20:45:41;100101.91;;;9.16;90.97
12360;BME280;6244;51.460;7.090;2023-04-10T20:50:43;100137.31;;;9.23;90.91
12360;BME280;6244;51.460;7.090;2023-04-10T20:55:40;100130.41;;;9.22;90.97
12360;BME280;6244;51.460;7.090;2023-04-10T21:00:36;100120.59;;;9.09;91.70
12360;BME280;6244;51.460;7.090;2023-04-10T21:05:37;100105.72;;;9.10;91.55
12360;BME280;6244;51.460;7.090;2023-04-10T21:10:35;100093.31;;;8.98;90.83
12360;BME280;6244;51.460;7.090;2023-04-10T21:15:38;100086.78;;;8.89;91.16
12360;BME280;6244;51.460;7.090;2023-04-10T21:20:34;100061.63;;;8.87;91.23
12360;BME280;6244;51.460;7.090;2023-04-10T21:25:31;100019.25;;;8.80;90.79
12360;BME280;6244;51.460;7.090;2023-04-10T21:30:30;100018.00;;;8.54;91.03
12360;BME280;6244;51.460;7.090;2023-04-10T21:35:26;100031.59;;;8.45;91.73
12360;BME280;6244;51.460;7.090;2023-04-10T21:40:23;100013.78;;;8.51;91.59
12360;BME280;6244;51.460;7.090;2023-04-10T21:45:20;99992.13;;;8.49;91.05
12360;BME280;6244;51.460;7.090;2023-04-10T21:50:18;99986.72;;;8.52;91.23
12360;BME280;6244;51.460;7.090;2023-04-10T21:55:16;100002.84;;;8.61;90.94
12360;BME280;6244;51.460;7.090;2023-04-10T22:00:13;99965.50;;;8.59;90.40
12360;BME280;6244;51.460;7.090;2023-04-10T22:05:11;99979.03;;;8.49;90.23
12360;BME280;6244;51.460;7.090;2023-04-10T22:10:09;99995.91;;;8.44;90.03
12360;BME280;6244;51.460;7.090;2023-04-10T22:15:07;100028.19;;;8.43;90.15
12360;BME280;6244;51.460;7.090;2023-04-10T22:20:04;100033.66;;;8.38;90.56
12360;BME280;6244;51.460;7.090;2023-04-10T22:25:00;100034.34;;;8.42;89.94
12360;BME280;6244;51.460;7.090;2023-04-10T22:29:59;100023.59;;;8.48;90.30
12360;BME280;6244;51.460;7.090;2023-04-10T22:34:57;100008.38;;;8.39;88.63
12360;BME280;6244;51.460;7.090;2023-04-10T22:39:53;100008.66;;;8.33;88.48
12360;BME280;6244;51.460;7.090;2023-04-10T22:44:50;99985.44;;;8.27;89.10
12360;BME280;6244;51.460;7.090;2023-04-10T22:49:51;99976.16;;;8.21;89.08
12360;BME280;6244;51.460;7.090;2023-04-10T22:54:47;99930.63;;;8.09;90.24
12360;BME280;6244;51.460;7.090;2023-04-10T22:59:44;99927.84;;;8.12;90.10
12360;BME280;6244;51.460;7.090;2023-04-10T23:04:40;99952.28;;;8.11;90.24
12360;BME280;6244;51.460;7.090;2023-04-10T23:09:38;99967.03;;;8.12;90.45
12360;BME280;6244;51.460;7.090;2023-04-10T23:14:37;99958.28;;;8.13;89.58
12360;BME280;6244;51.460;7.090;2023-04-10T23:19:34;99972.63;;;8.22;90.66
12360;BME280;6244;51.460;7.090;2023-04-10T23:24:30;99976.84;;;8.24;89.40
12360;BME280;6244;51.460;7.090;2023-04-10T23:29:29;99964.22;;;8.33;89.72
12360;BME280;6244;51.460;7.090;2023-04-10T23:34:26;99979.78;;;8.36;89.21
12360;BME280;6244;51.460;7.090;2023-04-10T23:39:22;99981.84;;;8.46;88.93
12360;BME280;6244;51.460;7.090;2023-04-10T23:44:19;99983.59;;;8.46;87.55
12360;BME280;6244;51.460;7.090;2023-04-10T23:49:17;99984.72;;;8.58;85.46
12360;BME280;6244;51.460;7.090;2023-04-10T23:54:13;99972.81;;;8.68;83.75
12360;BME280;6244;51.460;7.090;2023-04-10T23:59:10;99965.75;;;8.70;83.24
